sensor_id;sensor_type;location;lat;lon;timestamp;P1;durP1;ratioP1;P2;durP2;ratioP2
59830;SDS011;45711;50.108;13.712;2023-07-16T00:00:24;32.47;;;3.28;;
59830;SDS011;45711;50.108;13.712;2023-07-16T00:02:50;20.33;;;3.28;;
59830;SDS011;45711;50.108;13.712;2023-07-16T00:05:17;16.80;;;3.00;;
59830;SDS011;45711;50.108;13.712;2023-07-16T00:07:43;18.52;;;3.80;;
59830;SDS011;45711;50.108;13.712;2023-07-16T00:10:09;10.38;;;2.80;;
59830;SDS011;45711;50.108;13.712;2023-07-16T00:12:35;14.52;;;3.10;;
59830;SDS011;45711;50.108;13.712;2023-07-16T00:15:00;15.73;;;2.90;;
59830;SDS011;45711;50.108;13.712;2023-07-16T00:17:26;21.33;;;3.05;;
59830;SDS011;45711;50.108;13.712;2023-07-16T00:19:51;8.27;;;2.95;;
59830;SDS011;45711;50.108;13.712;2023-07-16T00:22:19;11.82;;;2.70;;
59830;SDS011;45711;50.108;13.712;2023-07-16T00:24:44;16.10;;;2.35;;
59830;SDS011;45711;50.108;13.712;2023-07-16T00:27:10;21.50;;;2.92;;
59830;SDS011;45711;50.108;13.712;2023-07-16T00:29:35;13.93;;;3.10;;
59830;SDS011;45711;50.108;13.712;2023-07-16T00:32:01;20.38;;;2.63;;
59830;SDS011;45711;50.108;13.712;2023-07-16T00:34:27;15.88;;;2.55;;
59830;SDS011;45711;50.108;13.712;2023-07-16T00:36:53;16.73;;;3.13;;
59830;SDS011;45711;50.108;13.712;2023-07-16T00:39:20;10.98;;;2.83;;
59830;SDS011;45711;50.108;13.712;2023-07-16T00:41:46;7.60;;;2.17;;
59830;SDS011;45711;50.108;13.712;2023-07-16T00:44:11;14.27;;;2.60;;
59830;SDS011;45711;50.108;13.712;2023-07-16T00:46:37;6.90;;;2.30;;
59830;SDS011;45711;50.108;13.712;2023-07-16T00:49:03;8.45;;;2.35;;
59830;SDS011;45711;50.108;13.712;2023-07-16T00:51:29;8.18;;;2.40;;
59830;SDS011;45711;50.108;13.712;2023-07-16T00:53:58;6.22;;;2.80;;
59830;SDS011;45711;50.108;13.712;2023-07-16T00:56:25;12.05;;;2.60;;
59830;SDS011;45711;50.108;13.712;2023-07-16T00:58:52;12.20;;;2.33;;
59830;SDS011;45711;50.108;13.712;2023-07-16T01:01:17;6.00;;;2.45;;
59830;SDS011;45711;50.108;13.712;2023-07-16T01:03:43;5.72;;;2.30;;
59830;SDS011;45711;50.108;13.712;2023-07-16T01:06:10;7.60;;;2.40;;
59830;SDS011;45711;50.108;13.712;2023-07-16T01:08:41;8.00;;;2.50;;
59830;SDS011;45711;50.108;13.712;2023-07-16T01:11:08;6.15;;;2.80;;
59830;SDS011;45711;50.108;13.712;2023-07-16T01:13:36;5.72;;;2.60;;
59830;SDS011;45711;50.108;13.712;2023-07-16T01:16:02;6.72;;;2.47;;
59830;SDS011;45711;50.108;13.712;2023-07-16T01:18:27;10.63;;;2.60;;
59830;SDS011;45711;50.108;13.712;2023-07-16T01:20:53;6.65;;;2.40;;
59830;SDS011;45711;50.108;13.712;2023-07-16T01:23:35;8.27;;;2.60;;
59830;SDS011;45711;50.108;13.712;2023-07-16T01:26:15;4.88;;;2.30;;
59830;SDS011;45711;50.108;13.712;2023-07-16T01:29:17;7.22;;;2.70;;
59830;SDS011;45711;50.108;13.712;2023-07-16T01:31:56;7.05;;;2.42;;
59830;SDS011;45711;50.108;13.712;2023-07-16T01:34:25;5.90;;;2.33;;
59830;SDS011;45711;50.108;13.712;2023-07-16T01:36:53;8.48;;;2.30;;
59830;SDS011;45711;50.108;13.712;2023-07-16T01:39:19;2.20;;;1.85;;
59830;SDS011;45711;50.108;13.712;2023-07-16T01:41:45;2.83;;;2.00;;
59830;SDS011;45711;50.108;13.712;2023-07-16T01:44:11;2.00;;;1.55;;
59830;SDS011;45711;50.108;13.712;2023-07-16T01:46:38;3.85;;;1.65;;
59830;SDS011;45711;50.108;13.712;2023-07-16T01:49:03;6.20;;;1.73;;
59830;SDS011;45711;50.108;13.712;2023-07-16T01:51:29;9.38;;;1.67;;
59830;SDS011;45711;50.108;13.712;2023-07-16T01:53:55;2.58;;;1.65;;
59830;SDS011;45711;50.108;13.712;2023-07-16T01:56:21;3.88;;;1.58;;
59830;SDS011;45711;50.108;13.712;2023-07-16T01:58:46;3.67;;;1.80;;
59830;SDS011;45711;50.108;13.712;2023-07-16T02:01:12;4.05;;;1.58;;
59830;SDS011;45711;50.108;13.712;2023-07-16T02:03:39;4.45;;;1.70;;
59830;SDS011;45711;50.108;13.712;2023-07-16T02:06:05;4.63;;;1.75;;
59830;SDS011;45711;50.108;13.712;2023-07-16T02:08:31;9.85;;;1.50;;
59830;SDS011;45711;50.108;13.712;2023-07-16T02:10:56;5.07;;;1.80;;
59830;SDS011;45711;50.108;13.712;2023-07-16T02:13:22;8.05;;;1.60;;
59830;SDS011;45711;50.108;13.712;2023-07-16T02:15:48;5.25;;;1.38;;
59830;SDS011;45711;50.108;13.712;2023-07-16T02:18:13;2.45;;;1.60;;
59830;SDS011;45711;50.108;13.712;2023-07-16T02:20:41;2.33;;;1.52;;
59830;SDS011;45711;50.108;13.712;2023-07-16T02:23:08;1.50;;;1.23;;
59830;SDS011;45711;50.108;13.712;2023-07-16T02:25:34;4.78;;;2.00;;
59830;SDS011;45711;50.108;13.712;2023-07-16T02:28:00;3.97;;;1.85;;
59830;SDS011;45711;50.108;13.712;2023-07-16T02:30:26;2.60;;;1.60;;
59830;SDS011;45711;50.108;13.712;2023-07-16T02:32:52;2.05;;;1.50;;
59830;SDS011;45711;50.108;13.712;2023-07-16T02:35:18;2.55;;;1.70;;
59830;SDS011;45711;50.108;13.712;2023-07-16T02:37:45;3.20;;;1.83;;
59830;SDS011;45711;50.108;13.712;2023-07-16T02:40:11;2.42;;;1.60;;
59830;SDS011;45711;50.108;13.712;2023-07-16T02:42:37;2.10;;;1.50;;
59830;SDS011;45711;50.108;13.712;2023-07-16T02:45:02;2.13;;;1.70;;
59830;SDS011;45711;50.108;13.712;2023-07-16T02:47:29;3.88;;;1.60;;
59830;SDS011;45711;50.108;13.712;2023-07-16T02:49:54;3.05;;;1.60;;
59830;SDS011;45711;50.108;13.712;2023-07-16T02:52:20;2.42;;;1.70;;
59830;SDS011;45711;50.108;13.712;2023-07-16T02:54:47;3.85;;;1.70;;
59830;SDS011;45711;50.108;13.712;2023-07-16T02:57:13;3.53;;;1.60;;
59830;SDS011;45711;50.108;13.712;2023-07-16T02:59:38;4.50;;;1.58;;
59830;SDS011;45711;50.108;13.712;2023-07-16T03:02:04;2.05;;;1.40;;
59830;SDS011;45711;50.108;13.712;2023-07-16T03:04:29;4.93;;;1.85;;
59830;SDS011;45711;50.108;13.712;2023-07-16T03:06:55;3.47;;;1.55;;
59830;SDS011;45711;50.108;13.712;2023-07-16T03:09:21;2.00;;;1.35;;
59830;SDS011;45711;50.108;13.712;2023-07-16T03:11:48;2.75;;;1.35;;
59830;SDS011;45711;50.108;13.712;2023-07-16T03:14:13;2.72;;;1.27;;
59830;SDS011;45711;50.108;13.712;2023-07-16T03:16:39;1.60;;;1.00;;
59830;SDS011;45711;50.108;13.712;2023-07-16T03:19:06;1.70;;;0.95;;
59830;SDS011;45711;50.108;13.712;2023-07-16T03:21:31;4.22;;;1.00;;
59830;SDS011;45711;50.108;13.712;2023-07-16T03:23:57;2.33;;;1.38;;
59830;SDS011;45711;50.108;13.712;2023-07-16T03:26:23;2.40;;;1.05;;
59830;SDS011;45711;50.108;13.712;2023-07-16T03:28:50;2.47;;;1.23;;
59830;SDS011;45711;50.108;13.712;2023-07-16T03:31:16;1.50;;;1.00;;
59830;SDS011;45711;50.108;13.712;2023-07-16T03:33:41;2.92;;;1.23;;
59830;SDS011;45711;50.108;13.712;2023-07-16T03:36:07;2.33;;;1.17;;
59830;SDS011;45711;50.108;13.712;2023-07-16T03:38:33;5.28;;;1.05;;
59830;SDS011;45711;50.108;13.712;2023-07-16T03:40:58;2.25;;;1.02;;
59830;SDS011;45711;50.108;13.712;2023-07-16T03:43:25;2.38;;;1.30;;
59830;SDS011;45711;50.108;13.712;2023-07-16T03:45:52;4.45;;;1.27;;
59830;SDS011;45711;50.108;13.712;2023-07-16T03:48:17;10.52;;;1.45;;
59830;SDS011;45711;50.108;13.712;2023-07-16T03:50:43;5.10;;;1.13;;
59830;SDS011;45711;50.108;13.712;2023-07-16T03:53:09;4.22;;;1.20;;
59830;SDS011;45711;50.108;13.712;2023-07-16T03:55:34;4.50;;;1.27;;
59830;SDS011;45711;50.108;13.712;2023-07-16T03:58:01;2.30;;;1.35;;
59830;SDS011;45711;50.108;13.712;2023-07-16T04:00:26;2.83;;;1.30;;
59830;SDS011;45711;50.108;13.712;2023-07-16T04:02:53;3.88;;;1.45;;
59830;SDS011;45711;50.108;13.712;2023-07-16T04:05:19;2.63;;;1.23;;
59830;SDS011;45711;50.108;13.712;2023-07-16T04:07:44;2.88;;;1.38;;
59830;SDS011;45711;50.108;13.712;2023-07-16T04:10:10;3.15;;;1.45;;
59830;SDS011;45711;50.108;13.712;2023-07-16T04:12:35;4.00;;;1.27;;
59830;SDS011;45711;50.108;13.712;2023-07-16T04:15:06;8.88;;;1.52;;
59830;SDS011;45711;50.108;13.712;2023-07-16T04:17:32;8.50;;;1.90;;
59830;SDS011;45711;50.108;13.712;2023-07-16T04:19:59;5.30;;;1.83;;
59830;SDS011;45711;50.108;13.712;2023-07-16T04:22:25;6.22;;;1.27;;
59830;SDS011;45711;50.108;13.712;2023-07-16T04:24:50;2.85;;;1.63;;
59830;SDS011;45711;50.108;13.712;2023-07-16T04:27:16;3.22;;;1.50;;
59830;SDS011;45711;50.108;13.712;2023-07-16T04:29:41;2.65;;;1.50;;
59830;SDS011;45711;50.108;13.712;2023-07-16T04:32:07;3.63;;;1.58;;
59830;SDS011;45711;50.108;13.712;2023-07-16T04:34:33;9.32;;;3.15;;
59830;SDS011;45711;50.108;13.712;2023-07-16T04:37:00;2.65;;;1.60;;
59830;SDS011;45711;50.108;13.712;2023-07-16T04:39:25;7.60;;;2.10;;
59830;SDS011;45711;50.108;13.712;2023-07-16T04:41:51;4.03;;;1.67;;
59830;SDS011;45711;50.108;13.712;2023-07-16T04:44:16;7.93;;;1.65;;
59830;SDS011;45711;50.108;13.712;2023-07-16T04:46:42;4.65;;;1.60;;
59830;SDS011;45711;50.108;13.712;2023-07-16T04:49:07;6.80;;;1.92;;
59830;SDS011;45711;50.108;13.712;2023-07-16T04:51:33;5.00;;;1.80;;
59830;SDS011;45711;50.108;13.712;2023-07-16T04:54:00;5.43;;;1.67;;
59830;SDS011;45711;50.108;13.712;2023-07-16T04:56:25;2.65;;;1.50;;
59830;SDS011;45711;50.108;13.712;2023-07-16T04:58:51;3.88;;;1.67;;
59830;SDS011;45711;50.108;13.712;2023-07-16T05:01:16;7.85;;;1.80;;
59830;SDS011;45711;50.108;13.712;2023-07-16T05:03:42;4.00;;;1.75;;
59830;SDS011;45711;50.108;13.712;2023-07-16T05:06:07;4.63;;;1.90;;
59830;SDS011;45711;50.108;13.712;2023-07-16T05:08:33;9.27;;;1.80;;
59830;SDS011;45711;50.108;13.712;2023-07-16T05:11:00;5.15;;;1.98;;
59830;SDS011;45711;50.108;13.712;2023-07-16T05:13:26;7.75;;;2.20;;
59830;SDS011;45711;50.108;13.712;2023-07-16T05:15:52;3.20;;;2.03;;
59830;SDS011;45711;50.108;13.712;2023-07-16T05:18:18;3.65;;;2.13;;
59830;SDS011;45711;50.108;13.712;2023-07-16T05:20:46;3.72;;;2.20;;
59830;SDS011;45711;50.108;13.712;2023-07-16T05:23:11;5.85;;;2.25;;
59830;SDS011;45711;50.108;13.712;2023-07-16T05:25:37;5.95;;;3.90;;
59830;SDS011;45711;50.108;13.712;2023-07-16T05:28:04;10.93;;;5.75;;
59830;SDS011;45711;50.108;13.712;2023-07-16T05:30:29;7.43;;;4.13;;
59830;SDS011;45711;50.108;13.712;2023-07-16T05:32:55;7.07;;;3.97;;
59830;SDS011;45711;50.108;13.712;2023-07-16T05:35:21;6.10;;;2.67;;
59830;SDS011;45711;50.108;13.712;2023-07-16T05:37:46;8.38;;;3.08;;
59830;SDS011;45711;50.108;13.712;2023-07-16T05:40:12;5.55;;;4.13;;
59830;SDS011;45711;50.108;13.712;2023-07-16T05:42:37;12.75;;;6.43;;
59830;SDS011;45711;50.108;13.712;2023-07-16T05:45:05;9.15;;;5.63;;
59830;SDS011;45711;50.108;13.712;2023-07-16T05:47:31;11.48;;;6.70;;
59830;SDS011;45711;50.108;13.712;2023-07-16T05:49:56;9.20;;;6.05;;
59830;SDS011;45711;50.108;13.712;2023-07-16T05:52:22;5.10;;;3.97;;
59830;SDS011;45711;50.108;13.712;2023-07-16T05:54:48;5.68;;;3.28;;
59830;SDS011;45711;50.108;13.712;2023-07-16T05:57:13;6.63;;;3.50;;
59830;SDS011;45711;50.108;13.712;2023-07-16T05:59:39;9.70;;;5.47;;
59830;SDS011;45711;50.108;13.712;2023-07-16T06:02:06;16.13;;;8.68;;
59830;SDS011;45711;50.108;13.712;2023-07-16T06:04:31;14.02;;;7.63;;
59830;SDS011;45711;50.108;13.712;2023-07-16T06:06:57;8.50;;;5.85;;
59830;SDS011;45711;50.108;13.712;2023-07-16T06:09:23;4.70;;;3.42;;
59830;SDS011;45711;50.108;13.712;2023-07-16T06:11:49;5.47;;;2.10;;
59830;SDS011;45711;50.108;13.712;2023-07-16T06:14:15;5.03;;;1.70;;
59830;SDS011;45711;50.108;13.712;2023-07-16T06:16:41;3.97;;;2.00;;
59830;SDS011;45711;50.108;13.712;2023-07-16T06:19:08;2.72;;;1.40;;
59830;SDS011;45711;50.108;13.712;2023-07-16T06:21:33;2.35;;;1.60;;
59830;SDS011;45711;50.108;13.712;2023-07-16T06:23:59;5.43;;;1.45;;
59830;SDS011;45711;50.108;13.712;2023-07-16T06:26:25;3.22;;;1.65;;
59830;SDS011;45711;50.108;13.712;2023-07-16T06:28:50;4.13;;;1.95;;
59830;SDS011;45711;50.108;13.712;2023-07-16T06:31:16;1.88;;;1.30;;
59830;SDS011;45711;50.108;13.712;2023-07-16T06:33:41;2.45;;;1.48;;
59830;SDS011;45711;50.108;13.712;2023-07-16T06:36:08;10.63;;;2.03;;
59830;SDS011;45711;50.108;13.712;2023-07-16T06:38:34;3.35;;;1.67;;
59830;SDS011;45711;50.108;13.712;2023-07-16T06:41:00;3.53;;;2.03;;
59830;SDS011;45711;50.108;13.712;2023-07-16T06:43:25;3.15;;;1.40;;
59830;SDS011;45711;50.108;13.712;2023-07-16T06:45:51;2.42;;;1.50;;
59830;SDS011;45711;50.108;13.712;2023-07-16T06:48:16;2.25;;;1.50;;
59830;SDS011;45711;50.108;13.712;2023-07-16T06:50:43;2.55;;;1.40;;
59830;SDS011;45711;50.108;13.712;2023-07-16T06:53:10;3.38;;;1.60;;
59830;SDS011;45711;50.108;13.712;2023-07-16T06:55:35;6.28;;;1.70;;
59830;SDS011;45711;50.108;13.712;2023-07-16T06:58:01;3.90;;;1.70;;
59830;SDS011;45711;50.108;13.712;2023-07-16T07:00:27;4.25;;;1.60;;
59830;SDS011;45711;50.108;13.712;2023-07-16T07:02:52;3.30;;;1.60;;
59830;SDS011;45711;50.108;13.712;2023-07-16T07:05:18;4.75;;;1.80;;
59830;SDS011;45711;50.108;13.712;2023-07-16T07:07:44;6.35;;;1.70;;
59830;SDS011;45711;50.108;13.712;2023-07-16T07:10:12;6.35;;;1.75;;
59830;SDS011;45711;50.108;13.712;2023-07-16T07:12:38;7.05;;;1.75;;
59830;SDS011;45711;50.108;13.712;2023-07-16T07:15:04;5.88;;;1.60;;
59830;SDS011;45711;50.108;13.712;2023-07-16T07:17:30;3.35;;;1.98;;
59830;SDS011;45711;50.108;13.712;2023-07-16T07:19:56;2.75;;;2.13;;
59830;SDS011;45711;50.108;13.712;2023-07-16T07:22:21;3.53;;;2.00;;
59830;SDS011;45711;50.108;13.712;2023-07-16T07:24:47;4.85;;;1.90;;
59830;SDS011;45711;50.108;13.712;2023-07-16T07:27:14;4.68;;;2.40;;
59830;SDS011;45711;50.108;13.712;2023-07-16T07:29:40;4.95;;;2.30;;
59830;SDS011;45711;50.108;13.712;2023-07-16T07:32:05;2.25;;;2.05;;
59830;SDS011;45711;50.108;13.712;2023-07-16T07:34:32;3.97;;;2.25;;
59830;SDS011;45711;50.108;13.712;2023-07-16T07:36:57;6.80;;;1.85;;
59830;SDS011;45711;50.108;13.712;2023-07-16T07:39:23;4.65;;;2.30;;
59830;SDS011;45711;50.108;13.712;2023-07-16T07:41:48;3.08;;;2.22;;
59830;SDS011;45711;50.108;13.712;2023-07-16T07:44:15;3.83;;;2.17;;
59830;SDS011;45711;50.108;13.712;2023-07-16T07:46:41;4.55;;;2.47;;
59830;SDS011;45711;50.108;13.712;2023-07-16T07:49:06;3.88;;;2.13;;
59830;SDS011;45711;50.108;13.712;2023-07-16T07:51:32;3.60;;;2.22;;
59830;SDS011;45711;50.108;13.712;2023-07-16T07:53:57;3.60;;;2.08;;
59830;SDS011;45711;50.108;13.712;2023-07-16T07:56:23;2.65;;;2.05;;
59830;SDS011;45711;50.108;13.712;2023-07-16T07:58:49;4.88;;;2.13;;
59830;SDS011;45711;50.108;13.712;2023-07-16T08:01:15;5.07;;;2.13;;
59830;SDS011;45711;50.108;13.712;2023-07-16T08:03:41;7.10;;;2.33;;
59830;SDS011;45711;50.108;13.712;2023-07-16T08:06:07;7.45;;;2.30;;
59830;SDS011;45711;50.108;13.712;2023-07-16T08:08:32;3.65;;;2.50;;
59830;SDS011;45711;50.108;13.712;2023-07-16T08:10:58;6.85;;;2.00;;
59830;SDS011;45711;50.108;13.712;2023-07-16T08:13:23;7.43;;;2.30;;
59830;SDS011;45711;50.108;13.712;2023-07-16T08:15:49;4.00;;;2.10;;
59830;SDS011;45711;50.108;13.712;2023-07-16T08:18:16;4.70;;;2.10;;
59830;SDS011;45711;50.108;13.712;2023-07-16T08:20:41;7.22;;;2.20;;
59830;SDS011;45711;50.108;13.712;2023-07-16T08:23:07;5.30;;;2.03;;
59830;SDS011;45711;50.108;13.712;2023-07-16T08:25:32;6.13;;;2.30;;
59830;SDS011;45711;50.108;13.712;2023-07-16T08:27:58;5.47;;;2.45;;
59830;SDS011;45711;50.108;13.712;2023-07-16T08:30:23;7.32;;;2.40;;
59830;SDS011;45711;50.108;13.712;2023-07-16T08:32:49;8.95;;;2.20;;
59830;SDS011;45711;50.108;13.712;2023-07-16T08:35:16;4.10;;;2.10;;
59830;SDS011;45711;50.108;13.712;2023-07-16T08:37:42;5.22;;;1.90;;
59830;SDS011;45711;50.108;13.712;2023-07-16T08:40:08;6.00;;;2.20;;
59830;SDS011;45711;50.108;13.712;2023-07-16T08:42:36;4.45;;;2.40;;
59830;SDS011;45711;50.108;13.712;2023-07-16T08:45:02;6.50;;;3.25;;
59830;SDS011;45711;50.108;13.712;2023-07-16T08:47:30;8.02;;;2.97;;
59830;SDS011;45711;50.108;13.712;2023-07-16T08:49:58;4.78;;;2.20;;
59830;SDS011;45711;50.108;13.712;2023-07-16T08:52:27;3.92;;;2.10;;
59830;SDS011;45711;50.108;13.712;2023-07-16T08:54:53;3.13;;;1.70;;
59830;SDS011;45711;50.108;13.712;2023-07-16T08:57:18;4.03;;;1.90;;
59830;SDS011;45711;50.108;13.712;2023-07-16T08:59:46;3.13;;;1.80;;
59830;SDS011;45711;50.108;13.712;2023-07-16T09:02:13;5.40;;;2.03;;
59830;SDS011;45711;50.108;13.712;2023-07-16T09:04:39;3.25;;;1.88;;
59830;SDS011;45711;50.108;13.712;2023-07-16T09:07:05;6.10;;;1.90;;
59830;SDS011;45711;50.108;13.712;2023-07-16T09:09:32;3.97;;;1.88;;
59830;SDS011;45711;50.108;13.712;2023-07-16T09:11:57;5.15;;;1.98;;
59830;SDS011;45711;50.108;13.712;2023-07-16T09:14:23;3.08;;;1.70;;
59830;SDS011;45711;50.108;13.712;2023-07-16T09:16:49;3.33;;;1.80;;
59830;SDS011;45711;50.108;13.712;2023-07-16T09:19:15;3.53;;;1.90;;
59830;SDS011;45711;50.108;13.712;2023-07-16T09:21:45;4.93;;;1.92;;
59830;SDS011;45711;50.108;13.712;2023-07-16T09:24:11;6.82;;;2.30;;
59830;SDS011;45711;50.108;13.712;2023-07-16T09:26:38;1.73;;;1.50;;
59830;SDS011;45711;50.108;13.712;2023-07-16T09:29:05;1.80;;;1.48;;
59830;SDS011;45711;50.108;13.712;2023-07-16T09:31:31;7.38;;;1.40;;
59830;SDS011;45711;50.108;13.712;2023-07-16T09:34:00;5.47;;;2.08;;
59830;SDS011;45711;50.108;13.712;2023-07-16T09:36:29;4.13;;;1.58;;
59830;SDS011;45711;50.108;13.712;2023-07-16T09:38:59;4.47;;;1.30;;
59830;SDS011;45711;50.108;13.712;2023-07-16T09:41:26;3.33;;;1.60;;
59830;SDS011;45711;50.108;13.712;2023-07-16T09:43:55;7.47;;;1.80;;
59830;SDS011;45711;50.108;13.712;2023-07-16T09:46:27;2.15;;;1.50;;
59830;SDS011;45711;50.108;13.712;2023-07-16T09:48:53;4.35;;;1.45;;
59830;SDS011;45711;50.108;13.712;2023-07-16T09:53:55;4.30;;;1.80;;
59830;SDS011;45711;50.108;13.712;2023-07-16T10:11:58;2.50;;;1.40;;
59830;SDS011;45711;50.108;13.712;2023-07-16T10:17:11;6.35;;;1.42;;
59830;SDS011;45711;50.108;13.712;2023-07-16T10:22:14;2.85;;;1.63;;
59830;SDS011;45711;50.108;13.712;2023-07-16T10:24:40;3.33;;;1.40;;
59830;SDS011;45711;50.108;13.712;2023-07-16T10:27:07;5.57;;;1.60;;
59830;SDS011;45711;50.108;13.712;2023-07-16T10:32:07;3.10;;;1.55;;
59830;SDS011;45711;50.108;13.712;2023-07-16T10:34:34;3.85;;;1.70;;
59830;SDS011;45711;50.108;13.712;2023-07-16T10:39:29;3.60;;;1.83;;
59830;SDS011;45711;50.108;13.712;2023-07-16T10:41:55;4.47;;;1.58;;
59830;SDS011;45711;50.108;13.712;2023-07-16T10:44:23;4.35;;;1.73;;
59830;SDS011;45711;50.108;13.712;2023-07-16T10:46:49;2.80;;;1.70;;
59830;SDS011;45711;50.108;13.712;2023-07-16T10:51:50;3.17;;;1.80;;
59830;SDS011;45711;50.108;13.712;2023-07-16T10:57:21;3.75;;;2.10;;
59830;SDS011;45711;50.108;13.712;2023-07-16T10:59:47;6.68;;;2.15;;
59830;SDS011;45711;50.108;13.712;2023-07-16T11:02:15;5.32;;;1.83;;
59830;SDS011;45711;50.108;13.712;2023-07-16T11:07:16;3.53;;;1.55;;
59830;SDS011;45711;50.108;13.712;2023-07-16T11:09:42;3.33;;;1.98;;
59830;SDS011;45711;50.108;13.712;2023-07-16T11:17:21;2.80;;;1.50;;
59830;SDS011;45711;50.108;13.712;2023-07-16T11:19:50;6.32;;;2.00;;
59830;SDS011;45711;50.108;13.712;2023-07-16T11:22:16;4.25;;;1.58;;
59830;SDS011;45711;50.108;13.712;2023-07-16T11:24:43;4.90;;;1.80;;
59830;SDS011;45711;50.108;13.712;2023-07-16T11:27:13;4.65;;;2.00;;
59830;SDS011;45711;50.108;13.712;2023-07-16T11:29:44;4.22;;;1.70;;
59830;SDS011;45711;50.108;13.712;2023-07-16T11:34:54;4.40;;;1.60;;
59830;SDS011;45711;50.108;13.712;2023-07-16T11:39:55;3.20;;;1.50;;
59830;SDS011;45711;50.108;13.712;2023-07-16T11:42:28;4.05;;;1.50;;
59830;SDS011;45711;50.108;13.712;2023-07-16T11:47:31;4.15;;;1.90;;
59830;SDS011;45711;50.108;13.712;2023-07-16T11:49:58;3.00;;;1.83;;
59830;SDS011;45711;50.108;13.712;2023-07-16T11:52:24;2.35;;;1.58;;
59830;SDS011;45711;50.108;13.712;2023-07-16T11:57:20;4.88;;;1.90;;
59830;SDS011;45711;50.108;13.712;2023-07-16T12:02:15;3.28;;;1.63;;
59830;SDS011;45711;50.108;13.712;2023-07-16T12:04:41;9.80;;;2.25;;
59830;SDS011;45711;50.108;13.712;2023-07-16T12:14:49;4.22;;;2.30;;
59830;SDS011;45711;50.108;13.712;2023-07-16T12:17:15;7.90;;;2.33;;
59830;SDS011;45711;50.108;13.712;2023-07-16T12:19:40;6.80;;;1.98;;
59830;SDS011;45711;50.108;13.712;2023-07-16T12:22:09;3.45;;;1.77;;
59830;SDS011;45711;50.108;13.712;2023-07-16T12:24:35;5.22;;;1.80;;
59830;SDS011;45711;50.108;13.712;2023-07-16T12:27:00;4.90;;;2.00;;
59830;SDS011;45711;50.108;13.712;2023-07-16T12:29:26;10.05;;;1.80;;
59830;SDS011;45711;50.108;13.712;2023-07-16T12:31:53;6.60;;;1.83;;
59830;SDS011;45711;50.108;13.712;2023-07-16T12:34:19;3.47;;;1.80;;
59830;SDS011;45711;50.108;13.712;2023-07-16T12:36:44;5.40;;;1.60;;
59830;SDS011;45711;50.108;13.712;2023-07-16T12:39:10;6.47;;;1.70;;
59830;SDS011;45711;50.108;13.712;2023-07-16T12:41:36;4.13;;;1.50;;
59830;SDS011;45711;50.108;13.712;2023-07-16T12:44:01;4.35;;;1.70;;
59830;SDS011;45711;50.108;13.712;2023-07-16T12:46:27;3.72;;;1.70;;
59830;SDS011;45711;50.108;13.712;2023-07-16T12:48:54;3.35;;;1.63;;
59830;SDS011;45711;50.108;13.712;2023-07-16T12:51:22;3.35;;;1.40;;
59830;SDS011;45711;50.108;13.712;2023-07-16T12:53:47;2.72;;;1.63;;
59830;SDS011;45711;50.108;13.712;2023-07-16T12:56:13;4.50;;;1.63;;
59830;SDS011;45711;50.108;13.712;2023-07-16T12:58:38;5.45;;;1.70;;
59830;SDS011;45711;50.108;13.712;2023-07-16T13:01:04;4.75;;;1.85;;
59830;SDS011;45711;50.108;13.712;2023-07-16T13:03:30;5.38;;;1.50;;
59830;SDS011;45711;50.108;13.712;2023-07-16T13:05:57;5.18;;;1.75;;
59830;SDS011;45711;50.108;13.712;2023-07-16T13:08:22;6.40;;;1.77;;
59830;SDS011;45711;50.108;13.712;2023-07-16T13:10:48;5.03;;;1.63;;
59830;SDS011;45711;50.108;13.712;2023-07-16T13:13:14;3.60;;;1.40;;
59830;SDS011;45711;50.108;13.712;2023-07-16T13:15:40;3.67;;;1.50;;
59830;SDS011;45711;50.108;13.712;2023-07-16T13:18:07;4.63;;;1.52;;
59830;SDS011;45711;50.108;13.712;2023-07-16T13:20:34;2.80;;;1.63;;
59830;SDS011;45711;50.108;13.712;2023-07-16T13:23:01;3.30;;;1.60;;
59830;SDS011;45711;50.108;13.712;2023-07-16T13:25:27;2.17;;;1.38;;
59830;SDS011;45711;50.108;13.712;2023-07-16T13:27:54;2.65;;;1.40;;
59830;SDS011;45711;50.108;13.712;2023-07-16T13:30:20;5.70;;;1.40;;
59830;SDS011;45711;50.108;13.712;2023-07-16T13:32:46;9.10;;;1.52;;
59830;SDS011;45711;50.108;13.712;2023-07-16T13:35:13;4.25;;;1.50;;
59830;SDS011;45711;50.108;13.712;2023-07-16T13:37:39;3.42;;;1.45;;
59830;SDS011;45711;50.108;13.712;2023-07-16T13:40:08;5.78;;;1.50;;
59830;SDS011;45711;50.108;13.712;2023-07-16T13:42:34;3.08;;;1.48;;
59830;SDS011;45711;50.108;13.712;2023-07-16T13:45:00;4.07;;;1.42;;
59830;SDS011;45711;50.108;13.712;2023-07-16T13:47:25;4.55;;;1.63;;
59830;SDS011;45711;50.108;13.712;2023-07-16T13:49:51;3.38;;;1.55;;
59830;SDS011;45711;50.108;13.712;2023-07-16T13:52:16;8.35;;;1.80;;
59830;SDS011;45711;50.108;13.712;2023-07-16T13:54:42;6.63;;;1.48;;
59830;SDS011;45711;50.108;13.712;2023-07-16T13:57:09;4.30;;;1.55;;
59830;SDS011;45711;50.108;13.712;2023-07-16T13:59:37;6.45;;;1.40;;
59830;SDS011;45711;50.108;13.712;2023-07-16T14:02:03;2.90;;;1.42;;
59830;SDS011;45711;50.108;13.712;2023-07-16T14:04:29;2.67;;;1.38;;
59830;SDS011;45711;50.108;13.712;2023-07-16T14:06:55;3.65;;;1.58;;
59830;SDS011;45711;50.108;13.712;2023-07-16T14:09:21;3.05;;;1.50;;
59830;SDS011;45711;50.108;13.712;2023-07-16T14:11:47;4.47;;;1.48;;
59830;SDS011;45711;50.108;13.712;2023-07-16T14:14:14;3.28;;;1.67;;
59830;SDS011;45711;50.108;13.712;2023-07-16T14:16:40;7.22;;;1.67;;
59830;SDS011;45711;50.108;13.712;2023-07-16T14:19:06;4.78;;;1.70;;
59830;SDS011;45711;50.108;13.712;2023-07-16T14:21:31;3.72;;;1.60;;
59830;SDS011;45711;50.108;13.712;2023-07-16T14:23:57;2.45;;;1.40;;
59830;SDS011;45711;50.108;13.712;2023-07-16T14:26:23;7.95;;;1.48;;
59830;SDS011;45711;50.108;13.712;2023-07-16T14:28:48;3.80;;;1.50;;
59830;SDS011;45711;50.108;13.712;2023-07-16T14:31:15;5.35;;;1.60;;
59830;SDS011;45711;50.108;13.712;2023-07-16T14:33:41;3.70;;;1.50;;
59830;SDS011;45711;50.108;13.712;2023-07-16T14:36:06;5.90;;;1.60;;
59830;SDS011;45711;50.108;13.712;2023-07-16T14:38:32;4.05;;;1.60;;
59830;SDS011;45711;50.108;13.712;2023-07-16T14:40:57;3.53;;;1.50;;
59830;SDS011;45711;50.108;13.712;2023-07-16T14:43:25;4.70;;;1.60;;
59830;SDS011;45711;50.108;13.712;2023-07-16T14:45:50;3.78;;;1.58;;
59830;SDS011;45711;50.108;13.712;2023-07-16T14:48:17;3.92;;;1.60;;
59830;SDS011;45711;50.108;13.712;2023-07-16T14:50:43;2.13;;;1.40;;
59830;SDS011;45711;50.108;13.712;2023-07-16T14:53:08;2.25;;;1.40;;
59830;SDS011;45711;50.108;13.712;2023-07-16T14:55:35;3.75;;;1.50;;
59830;SDS011;45711;50.108;13.712;2023-07-16T14:58:01;2.72;;;1.20;;
59830;SDS011;45711;50.108;13.712;2023-07-16T15:00:27;2.58;;;1.30;;
59830;SDS011;45711;50.108;13.712;2023-07-16T15:02:53;4.68;;;1.67;;
59830;SDS011;45711;50.108;13.712;2023-07-16T15:05:20;2.20;;;1.50;;
59830;SDS011;45711;50.108;13.712;2023-07-16T15:07:46;3.70;;;1.50;;
59830;SDS011;45711;50.108;13.712;2023-07-16T15:10:12;1.92;;;1.45;;
59830;SDS011;45711;50.108;13.712;2023-07-16T15:12:38;4.22;;;1.48;;
59830;SDS011;45711;50.108;13.712;2023-07-16T15:15:03;1.98;;;1.30;;
59830;SDS011;45711;50.108;13.712;2023-07-16T15:17:29;3.50;;;1.70;;
59830;SDS011;45711;50.108;13.712;2023-07-16T15:19:55;3.03;;;1.48;;
59830;SDS011;45711;50.108;13.712;2023-07-16T15:22:22;2.85;;;1.40;;
59830;SDS011;45711;50.108;13.712;2023-07-16T15:24:47;4.13;;;1.58;;
59830;SDS011;45711;50.108;13.712;2023-07-16T15:27:13;1.88;;;1.30;;
59830;SDS011;45711;50.108;13.712;2023-07-16T15:29:38;3.20;;;1.40;;